Time;durP1;ratioP1;P1;durP2;ratioP2;P2;SDS_P1;SDS_P2;PMS_P1;PMS_P2;Temp;Humidity;BMP_temperature;BMP_pressure;BME280_temperature;BME280_humidity;BME280_pressure;Samples;Min_cycle;Max_cycle;Signal;HPM_P1;HPM_P2
2023/04/09 00:02:08;;;;;;;157.48;115.03;;;;;;;;;;4985320;28;20056;-74
2023/04/09 00:04:33;;;;;;;169.07;124.25;;;;;;;;;;4990478;28;20029;-75
2023/04/09 00:06:58;;;;;;;113.85;95.72;;;;;;;;;;4988997;28;20026;-75
2023/04/09 00:09:23;;;;;;;110.30;92.10;;;;;;;;;;4985308;28;20584;-75
2023/04/09 00:11:49;;;;;;;120.22;96.22;;;;;;;;;;4994565;28;20021;-74
2023/04/09 00:14:14;;;;;;;131.82;100.05;;;;;;;;;;4997645;28;20476;-75
2023/04/09 00:16:39;;;;;;;160.48;123.47;;;;;;;;;;4992694;28;20040;-74
2023/04/09 00:19:05;;;;;;;165.43;122.32;;;;;;;;;;4986520;28;20025;-74
2023/04/09 00:21:31;;;;;;;146.73;112.40;;;;;;;;;;4998143;28;20030;-78
2023/04/09 00:23:56;;;;;;;149.40;122.22;;;;;;;;;;4994291;28;20481;-75
2023/04/09 00:26:21;;;;;;;151.57;116.38;;;;;;;;;;4996866;28;20121;-76
2023/04/09 00:28:47;;;;;;;147.77;116.65;;;;;;;;;;4996576;28;20033;-75
2023/04/09 00:31:12;;;;;;;151.75;122.53;;;;;;;;;;4996136;28;20030;-75
2023/04/09 00:33:37;;;;;;;165.75;123.50;;;;;;;;;;4989313;28;20065;-76
2023/04/09 00:36:03;;;;;;;177.57;128.18;;;;;;;;;;4986790;28;20087;-75
2023/04/09 00:38:28;;;;;;;181.43;123.50;;;;;;;;;;4992016;28;20131;-76
2023/04/09 00:40:53;;;;;;;219.98;145.70;;;;;;;;;;4998241;28;20022;-74
2023/04/09 00:43:19;;;;;;;208.50;132.05;;;;;;;;;;4983175;28;20034;-75
2023/04/09 00:45:44;;;;;;;159.63;105.38;;;;;;;;;;4995155;28;20036;-77
2023/04/09 00:48:11;;;;;;;153.27;102.78;;;;;;;;;;4990895;28;20480;-74
2023/04/09 00:50:37;;;;;;;154.10;103.03;;;;;;;;;;4978540;28;20065;-74
2023/04/09 00:53:03;;;;;;;150.40;108.18;;;;;;;;;;4997147;28;20034;-74
2023/04/09 00:55:30;;;;;;;148.65;114.88;;;;;;;;;;4988387;28;20084;-74
2023/04/09 00:57:56;;;;;;;155.38;112.95;;;;;;;;;;4984677;28;20040;-74
2023/04/09 01:00:21;;;;;;;163.20;110.22;;;;;;;;;;4982322;28;20025;-74
2023/04/09 01:02:47;;;;;;;141.60;98.50;;;;;;;;;;4982960;28;20383;-75
2023/04/09 01:05:13;;;;;;;187.50;130.70;;;;;;;;;;4996574;28;20029;-75
2023/04/09 01:07:44;;;;;;;175.32;124.93;;;;;;;;;;4996636;28;20033;-76
2023/04/09 01:10:10;;;;;;;153.60;109.32;;;;;;;;;;4989816;28;20025;-77
2023/04/09 01:12:46;;;;;;;133.70;98.72;;;;;;;;;;4990171;28;20040;-75
2023/04/09 01:15:19;;;;;;;168.43;125.72;;;;;;;;;;4995359;28;20050;-75
2023/04/09 01:18:17;;;;;;;182.18;125.97;;;;;;;;;;4997444;28;20176;-75
2023/04/09 01:20:48;;;;;;;152.38;109.82;;;;;;;;;;4953442;28;20164;-76
2023/04/09 01:23:19;;;;;;;147.52;103.97;;;;;;;;;;4953020;28;20085;-76
2023/04/09 01:26:06;;;;;;;143.95;100.45;;;;;;;;;;4956242;28;20129;-75
2023/04/09 01:28:36;;;;;;;100.40;70.72;;;;;;;;;;4954520;28;20624;-74
2023/04/09 01:31:10;;;;;;;94.78;66.30;;;;;;;;;;4954216;28;20093;-75
2023/04/09 01:33:36;;;;;;;104.93;74.97;;;;;;;;;;4943894;28;20042;-77
2023/04/09 01:36:03;;;;;;;88.93;66.32;;;;;;;;;;4950438;28;20443;-75
2023/04/09 01:38:28;;;;;;;72.22;57.58;;;;;;;;;;4955738;28;20067;-75
2023/04/09 01:40:55;;;;;;;72.43;57.90;;;;;;;;;;4944256;28;20058;-74
2023/04/09 01:43:21;;;;;;;61.15;51.70;;;;;;;;;;4956119;28;20198;-74
2023/04/09 01:45:46;;;;;;;63.15;51.13;;;;;;;;;;4957716;28;20435;-74
2023/04/09 01:48:15;;;;;;;68.50;56.50;;;;;;;;;;4958905;28;20154;-74
2023/04/09 01:50:41;;;;;;;68.35;56.88;;;;;;;;;;4953815;28;20051;-75
2023/04/09 01:53:06;;;;;;;73.60;60.20;;;;;;;;;;4945535;28;20119;-75
2023/04/09 01:55:32;;;;;;;82.25;64.18;;;;;;;;;;4959948;28;20084;-74
2023/04/09 01:57:57;;;;;;;76.93;59.42;;;;;;;;;;4999677;28;20022;-74
2023/04/09 02:00:23;;;;;;;70.43;55.85;;;;;;;;;;4999890;28;20476;-77
2023/04/09 02:02:58;;;;;;;100.20;75.93;;;;;;;;;;4997692;28;20034;-73
2023/04/09 02:05:25;;;;;;;74.00;59.47;;;;;;;;;;5000167;28;20041;-73
2023/04/09 02:07:55;;;;;;;74.38;60.78;;;;;;;;;;4998680;28;20050;-75
2023/04/09 02:10:23;;;;;;;68.97;56.15;;;;;;;;;;4995063;28;20116;-75
2023/04/09 02:12:49;;;;;;;66.60;55.45;;;;;;;;;;4994887;28;20033;-75
2023/04/09 02:15:15;;;;;;;112.70;80.93;;;;;;;;;;4999879;28;20034;-74
2023/04/09 02:17:40;;;;;;;79.53;62.20;;;;;;;;;;4999032;28;20026;-78
2023/04/09 02:20:06;;;;;;;62.95;51.15;;;;;;;;;;4995039;28;20022;-74
2023/04/09 02:22:31;;;;;;;75.72;59.30;;;;;;;;;;4998003;28;20030;-77
2023/04/09 02:24:57;;;;;;;104.88;74.20;;;;;;;;;;4997950;28;20029;-77
2023/04/09 02:27:22;;;;;;;77.57;60.85;;;;;;;;;;4989308;28;20844;-75
2023/04/09 02:29:47;;;;;;;75.03;60.42;;;;;;;;;;4996310;28;20034;-75
2023/04/09 02:32:12;;;;;;;55.65;49.60;;;;;;;;;;4999503;28;20029;-74
2023/04/09 02:34:38;;;;;;;51.92;46.03;;;;;;;;;;4997919;28;21258;-75
2023/04/09 02:37:03;;;;;;;54.15;47.88;;;;;;;;;;4998145;28;20034;-75
2023/04/09 02:39:28;;;;;;;59.90;51.72;;;;;;;;;;4998506;28;20180;-75
2023/04/09 02:41:54;;;;;;;58.85;50.95;;;;;;;;;;4995745;28;20040;-75
2023/04/09 02:44:20;;;;;;;54.38;48.40;;;;;;;;;;4998875;28;20451;-74
2023/04/09 02:46:46;;;;;;;63.10;53.72;;;;;;;;;;4996223;28;20046;-73
2023/04/09 02:49:11;;;;;;;67.63;57.38;;;;;;;;;;4997145;28;20034;-75
2023/04/09 02:51:37;;;;;;;64.70;55.90;;;;;;;;;;4992269;28;20038;-76
2023/04/09 02:54:02;;;;;;;72.05;61.10;;;;;;;;;;4992854;28;20492;-78
2023/04/09 02:56:28;;;;;;;74.10;61.80;;;;;;;;;;4997723;28;20633;-75
2023/04/09 02:58:54;;;;;;;69.78;60.00;;;;;;;;;;4995015;28;20036;-75
2023/04/09 03:01:19;;;;;;;72.70;61.42;;;;;;;;;;4994965;28;20031;-77
2023/04/09 03:03:45;;;;;;;72.68;62.17;;;;;;;;;;4999333;28;20382;-75
2023/04/09 03:06:10;;;;;;;78.55;65.28;;;;;;;;;;4998810;28;20110;-75
2023/04/09 03:08:35;;;;;;;82.70;68.63;;;;;;;;;;4994464;28;20351;-77
2023/04/09 03:11:01;;;;;;;88.28;72.70;;;;;;;;;;4998238;28;20375;-74
2023/04/09 03:13:26;;;;;;;163.73;117.28;;;;;;;;;;4997401;28;20140;-74
2023/04/09 03:15:52;;;;;;;217.00;160.00;;;;;;;;;;4996153;28;20026;-74
2023/04/09 03:18:17;;;;;;;170.90;134.35;;;;;;;;;;4997400;28;20082;-75
2023/04/09 03:20:42;;;;;;;115.95;95.30;;;;;;;;;;4997222;28;20635;-77
2023/04/09 03:23:07;;;;;;;78.88;67.55;;;;;;;;;;4997577;28;20027;-76
2023/04/09 03:25:33;;;;;;;76.63;64.82;;;;;;;;;;4998348;28;20089;-74
2023/04/09 03:27:58;;;;;;;69.90;59.50;;;;;;;;;;4997914;28;20052;-75
2023/04/09 03:30:23;;;;;;;75.72;64.05;;;;;;;;;;4996606;28;20022;-76
2023/04/09 03:32:49;;;;;;;72.10;60.78;;;;;;;;;;4997688;28;20026;-75
2023/04/09 03:35:14;;;;;;;86.47;71.35;;;;;;;;;;4994121;28;20449;-76
2023/04/09 03:37:39;;;;;;;95.00;80.25;;;;;;;;;;4995260;28;20038;-74
2023/04/09 03:40:05;;;;;;;80.88;69.90;;;;;;;;;;4998570;28;20057;-75
2023/04/09 03:42:30;;;;;;;73.20;61.58;;;;;;;;;;4994989;28;20038;-76
2023/04/09 03:44:56;;;;;;;63.92;55.28;;;;;;;;;;4996673;28;20025;-75
2023/04/09 03:47:21;;;;;;;67.00;58.08;;;;;;;;;;4990757;28;20140;-75
2023/04/09 03:49:46;;;;;;;68.70;57.65;;;;;;;;;;4990806;28;20057;-77
2023/04/09 03:52:11;;;;;;;80.45;67.43;;;;;;;;;;4994671;28;20033;-75
2023/04/09 03:54:37;;;;;;;105.13;88.68;;;;;;;;;;4996929;28;20034;-75
2023/04/09 03:57:03;;;;;;;88.53;73.93;;;;;;;;;;4997987;28;20136;-74
2023/04/09 03:59:28;;;;;;;84.32;70.47;;;;;;;;;;4997812;28;20028;-75
2023/04/09 04:01:53;;;;;;;81.07;67.30;;;;;;;;;;4995340;28;20025;-74
2023/04/09 04:04:19;;;;;;;71.55;58.88;;;;;;;;;;4998958;28;20033;-75
2023/04/09 04:06:44;;;;;;;68.50;57.00;;;;;;;;;;4996100;28;20026;-76
2023/04/09 04:09:09;;;;;;;65.55;55.38;;;;;;;;;;4994901;28;20069;-75
2023/04/09 04:11:35;;;;;;;63.88;55.90;;;;;;;;;;4995510;28;20045;-75
2023/04/09 04:14:00;;;;;;;66.65;58.10;;;;;;;;;;4997284;28;20412;-77
2023/04/09 04:16:25;;;;;;;76.43;63.95;;;;;;;;;;4995559;28;20509;-76
2023/04/09 04:18:51;;;;;;;106.63;90.80;;;;;;;;;;4997593;28;20437;-75
2023/04/09 04:21:16;;;;;;;109.68;93.50;;;;;;;;;;4996792;28;20026;-74
2023/04/09 04:23:41;;;;;;;115.43;98.50;;;;;;;;;;4995451;28;20057;-75
2023/04/09 04:26:08;;;;;;;99.00;82.53;;;;;;;;;;5011630;28;20349;-77
2023/04/09 04:28:34;;;;;;;87.65;69.22;;;;;;;;;;4997562;28;20121;-74
2023/04/09 04:31:00;;;;;;;61.90;50.13;;;;;;;;;;4995223;28;20120;-75
2023/04/09 04:33:25;;;;;;;54.10;45.67;;;;;;;;;;4993482;28;20083;-74
2023/04/09 04:35:50;;;;;;;53.17;46.72;;;;;;;;;;4996049;28;20387;-75
2023/04/09 04:38:16;;;;;;;59.00;50.30;;;;;;;;;;4996956;28;20060;-75
2023/04/09 04:40:41;;;;;;;57.20;51.13;;;;;;;;;;4997007;28;20029;-75
2023/04/09 04:43:06;;;;;;;53.80;48.00;;;;;;;;;;4997457;28;20022;-74
2023/04/09 04:45:32;;;;;;;55.92;49.78;;;;;;;;;;4997141;28;20037;-74
2023/04/09 04:47:57;;;;;;;62.67;53.72;;;;;;;;;;4995408;28;20045;-76
2023/04/09 04:50:22;;;;;;;60.75;54.33;;;;;;;;;;4994739;28;20131;-76
2023/04/09 04:52:47;;;;;;;65.53;58.33;;;;;;;;;;4981726;28;20037;-75
2023/04/09 04:55:13;;;;;;;83.78;72.90;;;;;;;;;;4976045;28;20029;-75
2023/04/09 04:57:38;;;;;;;90.70;76.45;;;;;;;;;;4977617;28;20044;-76
2023/04/09 05:00:03;;;;;;;246.35;197.82;;;;;;;;;;4976937;28;20034;-76
2023/04/09 05:02:29;;;;;;;154.52;123.13;;;;;;;;;;4972128;28;20500;-75
2023/04/09 05:04:54;;;;;;;151.35;119.57;;;;;;;;;;4973491;28;20288;-77
2023/04/09 05:07:20;;;;;;;113.93;95.03;;;;;;;;;;4976933;28;20026;-74
2023/04/09 05:09:45;;;;;;;99.22;85.30;;;;;;;;;;4974089;28;20042;-75
2023/04/09 05:12:10;;;;;;;87.13;76.72;;;;;;;;;;4979232;28;20168;-74
2023/04/09 05:14:36;;;;;;;81.25;70.68;;;;;;;;;;5000778;28;20122;-74
2023/04/09 05:17:01;;;;;;;78.28;66.53;;;;;;;;;;4990707;28;23381;-76
2023/04/09 05:19:26;;;;;;;73.43;64.40;;;;;;;;;;5000120;28;20077;-78
2023/04/09 05:21:51;;;;;;;82.20;67.05;;;;;;;;;;4998586;28;20026;-74
2023/04/09 05:24:17;;;;;;;69.18;60.20;;;;;;;;;;4988695;28;20030;-75
2023/04/09 05:26:42;;;;;;;69.45;59.08;;;;;;;;;;4998803;28;20018;-76
2023/04/09 05:29:07;;;;;;;127.60;94.57;;;;;;;;;;5000189;28;20041;-76
2023/04/09 05:31:34;;;;;;;124.22;95.28;;;;;;;;;;5000440;28;20038;-74
2023/04/09 05:33:59;;;;;;;109.05;86.78;;;;;;;;;;4999239;28;20037;-75
2023/04/09 05:36:25;;;;;;;160.10;142.98;;;;;;;;;;4993031;28;20014;-75
2023/04/09 05:38:50;;;;;;;101.63;89.75;;;;;;;;;;4992620;28;20026;-74
2023/04/09 05:41:15;;;;;;;82.25;71.82;;;;;;;;;;4994696;28;20429;-75
2023/04/09 05:43:41;;;;;;;89.38;77.57;;;;;;;;;;4996804;28;20026;-75
2023/04/09 05:46:06;;;;;;;96.10;82.55;;;;;;;;;;5007169;28;20041;-74
2023/04/09 05:48:34;;;;;;;105.25;93.35;;;;;;;;;;4990432;28;20030;-77
2023/04/09 05:50:59;;;;;;;102.78;86.53;;;;;;;;;;5000221;28;20034;-74
2023/04/09 05:53:24;;;;;;;104.53;88.07;;;;;;;;;;4999385;28;20077;-74
2023/04/09 05:55:50;;;;;;;100.30;86.18;;;;;;;;;;5000234;28;20357;-75
2023/04/09 05:58:17;;;;;;;167.70;130.18;;;;;;;;;;4998612;28;20027;-77
2023/04/09 06:00:42;;;;;;;169.43;134.02;;;;;;;;;;4976986;28;20584;-75
2023/04/09 06:03:08;;;;;;;222.18;177.07;;;;;;;;;;4976799;28;20040;-77
2023/04/09 06:05:33;;;;;;;215.93;169.43;;;;;;;;;;4977939;28;20026;-76
2023/04/09 06:07:59;;;;;;;133.50;107.97;;;;;;;;;;4975120;28;20050;-75
2023/04/09 06:10:24;;;;;;;102.97;85.95;;;;;;;;;;4979122;28;20065;-75
2023/04/09 06:12:50;;;;;;;103.05;83.70;;;;;;;;;;4964232;28;20076;-76
2023/04/09 06:15:15;;;;;;;101.68;84.40;;;;;;;;;;4979791;28;20033;-76
2023/04/09 06:17:40;;;;;;;81.63;68.68;;;;;;;;;;4977563;28;20061;-75
2023/04/09 06:20:06;;;;;;;82.57;69.72;;;;;;;;;;4977373;28;20036;-78
2023/04/09 06:22:31;;;;;;;70.93;62.95;;;;;;;;;;4984921;28;21099;-76
2023/04/09 06:24:57;;;;;;;69.80;62.15;;;;;;;;;;4979746;28;20424;-78
2023/04/09 06:27:22;;;;;;;90.32;77.35;;;;;;;;;;4978021;28;20034;-77
2023/04/09 06:29:47;;;;;;;90.28;78.32;;;;;;;;;;4983237;28;20038;-79
2023/04/09 06:32:13;;;;;;;97.15;83.30;;;;;;;;;;4979713;28;20031;-78
2023/04/09 06:34:38;;;;;;;98.10;82.90;;;;;;;;;;4982108;28;20023;-79
2023/04/09 06:37:04;;;;;;;78.32;66.38;;;;;;;;;;4984281;28;20030;-81
2023/04/09 06:39:29;;;;;;;81.88;71.00;;;;;;;;;;4998011;28;20041;-80
2023/04/09 06:41:55;;;;;;;71.50;61.58;;;;;;;;;;4980374;28;20014;-77
2023/04/09 06:44:20;;;;;;;77.30;67.25;;;;;;;;;;4979781;28;20625;-79
2023/04/09 06:46:46;;;;;;;65.35;57.60;;;;;;;;;;4978661;28;20181;-77
2023/04/09 06:49:11;;;;;;;67.43;60.10;;;;;;;;;;4980647;28;20034;-77
2023/04/09 06:51:37;;;;;;;74.85;66.72;;;;;;;;;;4982696;28;20125;-76
2023/04/09 06:54:03;;;;;;;73.60;65.47;;;;;;;;;;4985492;28;20026;-77
2023/04/09 06:56:29;;;;;;;100.40;87.55;;;;;;;;;;4993801;28;20057;-74
2023/04/09 06:58:54;;;;;;;86.38;73.03;;;;;;;;;;4999029;28;20062;-76
2023/04/09 07:01:19;;;;;;;76.88;64.15;;;;;;;;;;4980491;28;20494;-76
2023/04/09 07:03:45;;;;;;;61.70;53.45;;;;;;;;;;4993105;28;20026;-74
2023/04/09 07:06:10;;;;;;;67.45;57.88;;;;;;;;;;4997064;28;20488;-76
2023/04/09 07:08:36;;;;;;;76.30;65.53;;;;;;;;;;4997698;28;20042;-76
2023/04/09 07:11:02;;;;;;;84.28;72.32;;;;;;;;;;4995456;28;20026;-74
2023/04/09 07:13:27;;;;;;;77.43;64.55;;;;;;;;;;4988245;28;20176;-75
2023/04/09 07:15:52;;;;;;;71.85;62.38;;;;;;;;;;4997545;28;20100;-76
2023/04/09 07:18:18;;;;;;;76.25;66.10;;;;;;;;;;4998287;28;20369;-75
2023/04/09 07:20:44;;;;;;;81.85;69.05;;;;;;;;;;4995716;28;20017;-76
2023/04/09 07:23:09;;;;;;;75.30;65.22;;;;;;;;;;4998264;28;20072;-78
2023/04/09 07:25:35;;;;;;;77.38;67.15;;;;;;;;;;4985128;28;20439;-75
2023/04/09 07:28:00;;;;;;;71.80;63.30;;;;;;;;;;4997876;28;20467;-76
2023/04/09 07:30:26;;;;;;;69.03;59.72;;;;;;;;;;5012567;28;20411;-75
2023/04/09 07:32:51;;;;;;;73.68;63.08;;;;;;;;;;4997397;28;20029;-76
2023/04/09 07:35:17;;;;;;;67.53;59.30;;;;;;;;;;4999359;28;20061;-79
2023/04/09 07:37:43;;;;;;;73.70;64.13;;;;;;;;;;4975309;28;20049;-78
2023/04/09 07:40:08;;;;;;;80.95;70.10;;;;;;;;;;4990371;28;20053;-77
2023/04/09 07:42:35;;;;;;;98.32;83.13;;;;;;;;;;4988300;28;20022;-76
2023/04/09 07:45:02;;;;;;;105.00;92.10;;;;;;;;;;4993740;28;20030;-76
2023/04/09 07:47:28;;;;;;;99.15;84.55;;;;;;;;;;4996101;28;20133;-78
2023/04/09 07:49:53;;;;;;;96.53;83.45;;;;;;;;;;4969430;28;20033;-79
2023/04/09 07:52:19;;;;;;;94.55;83.35;;;;;;;;;;4980645;28;20034;-78
2023/04/09 07:54:44;;;;;;;93.38;81.90;;;;;;;;;;4980888;28;20141;-77
2023/04/09 07:57:09;;;;;;;81.60;72.68;;;;;;;;;;4979682;28;20036;-79
2023/04/09 07:59:35;;;;;;;86.50;75.43;;;;;;;;;;4985992;28;20425;-77
2023/04/09 08:02:00;;;;;;;85.88;76.43;;;;;;;;;;4977575;28;20040;-77
2023/04/09 08:04:26;;;;;;;90.40;75.47;;;;;;;;;;4978737;28;20034;-78
2023/04/09 08:06:52;;;;;;;85.63;76.30;;;;;;;;;;4977183;28;20026;-79
2023/04/09 08:09:18;;;;;;;80.75;70.55;;;;;;;;;;4980013;28;20026;-80
2023/04/09 08:11:44;;;;;;;72.45;64.63;;;;;;;;;;4981411;28;20053;-80
2023/04/09 08:14:11;;;;;;;72.50;61.90;;;;;;;;;;5006955;28;20445;-78
2023/04/09 08:16:38;;;;;;;76.88;63.92;;;;;;;;;;4990240;28;20022;-77
2023/04/09 08:19:03;;;;;;;74.00;60.97;;;;;;;;;;4985827;28;20018;-84
2023/04/09 08:21:28;;;;;;;71.25;61.08;;;;;;;;;;4982973;28;20030;-77
2023/04/09 08:23:58;;;;;;;67.47;58.90;;;;;;;;;;4984588;28;20030;-78
2023/04/09 08:26:23;;;;;;;88.85;71.78;;;;;;;;;;4993071;28;20022;-78
2023/04/09 08:28:50;;;;;;;93.35;77.28;;;;;;;;;;4991212;28;20041;-78
2023/04/09 08:31:16;;;;;;;75.05;63.53;;;;;;;;;;4995344;28;20326;-76
2023/04/09 08:33:41;;;;;;;84.18;73.10;;;;;;;;;;4991142;28;20525;-76
2023/04/09 08:36:07;;;;;;;83.97;71.88;;;;;;;;;;4989423;28;20030;-79
2023/04/09 08:38:32;;;;;;;65.40;57.10;;;;;;;;;;4991033;28;20095;-79
2023/04/09 08:40:58;;;;;;;109.38;89.03;;;;;;;;;;4989147;28;20025;-79
2023/04/09 08:43:24;;;;;;;109.10;89.03;;;;;;;;;;4984197;28;20434;-79
2023/04/09 08:45:50;;;;;;;103.47;87.72;;;;;;;;;;4981270;28;20032;-78
2023/04/09 08:48:15;;;;;;;96.80;82.63;;;;;;;;;;4982442;28;20046;-77
2023/04/09 08:50:41;;;;;;;77.28;68.07;;;;;;;;;;4994225;28;20076;-78
2023/04/09 08:53:07;;;;;;;51.47;45.50;;;;;;;;;;4995615;28;20350;-78
2023/04/09 08:55:39;;;;;;;51.17;44.88;;;;;;;;;;4997350;28;20085;-78
2023/04/09 08:58:06;;;;;;;45.97;39.70;;;;;;;;;;4982049;28;20072;-78
2023/04/09 09:00:31;;;;;;;46.00;41.03;;;;;;;;;;4980070;28;20089;-79
2023/04/09 09:03:00;;;;;;;55.42;45.85;;;;;;;;;;4987385;28;20115;-79
2023/04/09 09:05:36;;;;;;;51.80;43.67;;;;;;;;;;4988508;28;20095;-80
2023/04/09 09:08:01;;;;;;;55.30;47.65;;;;;;;;;;4987811;28;20107;-79
2023/04/09 09:10:40;;;;;;;46.42;39.00;;;;;;;;;;4984774;28;20030;-80
2023/04/09 09:13:25;;;;;;;41.50;37.07;;;;;;;;;;4990605;28;20446;-82
2023/04/09 09:15:54;;;;;;;40.47;36.08;;;;;;;;;;4995355;28;20037;-83
2023/04/09 09:18:19;;;;;;;50.90;44.33;;;;;;;;;;4995624;28;20093;-77
2023/04/09 09:20:45;;;;;;;49.10;42.30;;;;;;;;;;5010604;28;20425;-80
2023/04/09 09:23:10;;;;;;;46.30;41.28;;;;;;;;;;4993291;28;20088;-78
2023/04/09 09:25:39;;;;;;;43.15;38.08;;;;;;;;;;4992926;28;20030;-80
2023/04/09 09:28:08;;;;;;;48.23;42.77;;;;;;;;;;4994948;28;20030;-79
2023/04/09 09:30:35;;;;;;;43.22;38.40;;;;;;;;;;4995500;28;20322;-79
2023/04/09 09:33:04;;;;;;;42.80;37.45;;;;;;;;;;4996871;28;20081;-79
2023/04/09 09:35:30;;;;;;;;;;;;;;;;;;4997209;28;20030;-79
2023/04/09 09:38:03;;;;;;;50.63;44.93;;;;;;;;;;4996791;28;19992;-78
2023/04/09 09:40:28;;;;;;;45.25;39.83;;;;;;;;;;4995794;28;20441;-78
2023/04/09 09:42:55;;;;;;;50.38;43.58;;;;;;;;;;4991581;28;20028;-79
2023/04/09 09:45:20;;;;;;;53.20;45.50;;;;;;;;;;5010138;28;20408;-79
2023/04/09 09:47:46;;;;;;;60.15;49.83;;;;;;;;;;4991757;28;20042;-78
2023/04/09 09:50:11;;;;;;;64.03;50.08;;;;;;;;;;4997518;28;20107;-77
2023/04/09 09:52:38;;;;;;;57.78;50.20;;;;;;;;;;4994787;28;20061;-78
2023/04/09 09:55:05;;;;;;;74.00;57.42;;;;;;;;;;4994951;28;20103;-79
2023/04/09 09:57:32;;;;;;;58.45;51.92;;;;;;;;;;4985434;28;20425;-81
2023/04/09 10:00:00;;;;;;;68.35;57.72;;;;;;;;;;4997295;28;20030;-79
2023/04/09 10:02:29;;;;;;;64.82;54.03;;;;;;;;;;4998741;28;20044;-79
2023/04/09 10:04:55;;;;;;;69.57;57.80;;;;;;;;;;4994529;28;20030;-77
2023/04/09 10:07:21;;;;;;;74.18;60.55;;;;;;;;;;4998286;28;20268;-77
2023/04/09 10:09:50;;;;;;;103.22;75.53;;;;;;;;;;4990176;28;20038;-79
2023/04/09 10:12:16;;;;;;;114.93;80.95;;;;;;;;;;4978483;28;20033;-79
2023/04/09 10:14:42;;;;;;;97.30;73.30;;;;;;;;;;4988382;28;20022;-78
2023/04/09 10:17:07;;;;;;;80.93;60.72;;;;;;;;;;4981680;28;20061;-77
2023/04/09 10:19:36;;;;;;;77.75;56.85;;;;;;;;;;4991836;28;20038;-77
2023/04/09 10:22:05;;;;;;;85.15;62.25;;;;;;;;;;4988079;28;20061;-76
2023/04/09 10:24:32;;;;;;;92.60;66.85;;;;;;;;;;4973716;28;20346;-76
2023/04/09 10:27:08;;;;;;;122.00;73.85;;;;;;;;;;4984112;28;20034;-78
2023/04/09 10:29:33;;;;;;;178.38;98.82;;;;;;;;;;4995429;28;20034;-76
2023/04/09 10:32:05;;;;;;;64.13;45.72;;;;;;;;;;4998265;28;20334;-77
2023/04/09 10:34:34;;;;;;;71.63;49.92;;;;;;;;;;4978530;28;20034;-79
2023/04/09 10:36:59;;;;;;;61.45;46.53;;;;;;;;;;4994378;28;20030;-74
2023/04/09 10:39:25;;;;;;;56.40;43.33;;;;;;;;;;4995142;28;20030;-76
2023/04/09 10:41:51;;;;;;;50.13;40.90;;;;;;;;;;4984808;28;20050;-77
2023/04/09 10:44:20;;;;;;;40.05;35.63;;;;;;;;;;4990293;28;20088;-80
2023/04/09 10:46:45;;;;;;;73.40;52.13;;;;;;;;;;4992689;28;20077;-82
2023/04/09 10:49:18;;;;;;;138.18;82.53;;;;;;;;;;4987451;28;20403;-78
2023/04/09 10:52:02;;;;;;;65.85;48.65;;;;;;;;;;4984629;28;20033;-77
2023/04/09 10:54:33;;;;;;;47.30;40.70;;;;;;;;;;4994682;28;20026;-78
2023/04/09 10:57:07;;;;;;;61.55;44.75;;;;;;;;;;4988170;28;20033;-76
2023/04/09 10:59:33;;;;;;;37.97;33.88;;;;;;;;;;4986340;28;20886;-77
2023/04/09 11:01:58;;;;;;;49.55;39.58;;;;;;;;;;4987626;28;20029;-78
2023/04/09 11:04:25;;;;;;;44.35;37.53;;;;;;;;;;4976546;28;20030;-81
2023/04/09 11:06:51;;;;;;;40.40;36.03;;;;;;;;;;4982628;28;20399;-82
2023/04/09 11:09:16;;;;;;;49.58;42.25;;;;;;;;;;4990277;28;20038;-81
2023/04/09 11:11:42;;;;;;;92.72;66.07;;;;;;;;;;4982165;28;20029;-86
2023/04/09 11:14:07;;;;;;;44.05;38.60;;;;;;;;;;4987137;28;20046;-80
2023/04/09 11:16:32;;;;;;;41.08;36.75;;;;;;;;;;5006257;28;20349;-81
2023/04/09 11:18:58;;;;;;;80.03;54.40;;;;;;;;;;4998059;28;20021;-80
2023/04/09 11:21:30;;;;;;;47.03;39.80;;;;;;;;;;4987765;28;20041;-80
2023/04/09 11:23:55;;;;;;;43.38;38.58;;;;;;;;;;4984502;28;20079;-82
2023/04/09 11:26:33;;;;;;;42.38;36.33;;;;;;;;;;4986472;28;20042;-83
2023/04/09 11:29:03;;;;;;;96.75;68.60;;;;;;;;;;4985110;28;20497;-80
2023/04/09 11:31:28;;;;;;;;;;;;;;;;;;4985912;28;20030;-80
2023/04/09 11:33:54;;;;;;;49.33;44.15;;;;;;;;;;4990945;28;19971;-80
2023/04/09 11:36:20;;;;;;;76.85;58.67;;;;;;;;;;4984887;28;20041;-80
2023/04/09 11:38:47;;;;;;;52.53;43.80;;;;;;;;;;4985612;28;20446;-79
2023/04/09 11:41:13;;;;;;;48.13;42.65;;;;;;;;;;4993854;28;20193;-80
2023/04/09 11:43:38;;;;;;;68.65;57.95;;;;;;;;;;4990412;28;20453;-80
2023/04/09 11:46:04;;;;;;;47.97;42.85;;;;;;;;;;4985851;28;20034;-80
2023/04/09 11:48:29;;;;;;;66.30;52.92;;;;;;;;;;4991686;28;20057;-81
2023/04/09 11:50:55;;;;;;;64.15;54.22;;;;;;;;;;4997539;28;20429;-79
2023/04/09 11:53:21;;;;;;;58.65;49.92;;;;;;;;;;4990740;28;20100;-81
2023/04/09 11:55:49;;;;;;;64.80;54.35;;;;;;;;;;4983842;28;20053;-81
2023/04/09 11:58:14;;;;;;;93.07;76.60;;;;;;;;;;4991202;28;20093;-80
2023/04/09 12:00:39;;;;;;;74.70;60.50;;;;;;;;;;4977028;28;20739;-80
2023/04/09 12:03:05;;;;;;;72.30;56.38;;;;;;;;;;4978753;28;20048;-80
2023/04/09 12:05:31;;;;;;;110.05;87.32;;;;;;;;;;4977180;28;20307;-84
2023/04/09 12:08:00;;;;;;;75.55;62.80;;;;;;;;;;4980227;28;20433;-80
2023/04/09 12:10:30;;;;;;;66.75;55.20;;;;;;;;;;4986298;28;20026;-81
2023/04/09 12:13:04;;;;;;;77.75;64.88;;;;;;;;;;4992999;28;20384;-80
2023/04/09 12:15:31;;;;;;;83.28;65.68;;;;;;;;;;4994101;28;20069;-81
2023/04/09 12:17:57;;;;;;;71.80;59.50;;;;;;;;;;4995515;28;20064;-78
2023/04/09 12:20:31;;;;;;;72.72;56.72;;;;;;;;;;4992514;28;20058;-78
2023/04/09 12:22:59;;;;;;;75.70;63.25;;;;;;;;;;4979149;28;20116;-81
2023/04/09 12:25:24;;;;;;;81.97;64.38;;;;;;;;;;4977818;28;20021;-77
2023/04/09 12:27:50;;;;;;;110.50;87.93;;;;;;;;;;4984659;28;20409;-84
2023/04/09 12:30:15;;;;;;;103.72;77.45;;;;;;;;;;4983963;28;20041;-79
2023/04/09 12:32:43;;;;;;;77.15;63.42;;;;;;;;;;4989711;28;20334;-80
2023/04/09 12:35:09;;;;;;;66.60;54.50;;;;;;;;;;4994880;28;20014;-79
2023/04/09 12:37:34;;;;;;;74.43;59.70;;;;;;;;;;4982910;28;20037;-80
2023/04/09 12:39:59;;;;;;;78.43;61.90;;;;;;;;;;4994621;28;21338;-79
2023/04/09 12:42:24;;;;;;;98.13;79.00;;;;;;;;;;4992215;28;20409;-78
2023/04/09 12:44:50;;;;;;;85.32;66.75;;;;;;;;;;4995262;28;20064;-79
2023/04/09 12:47:16;;;;;;;98.70;74.25;;;;;;;;;;4996713;28;20038;-82
2023/04/09 12:49:45;;;;;;;107.53;79.80;;;;;;;;;;4993834;28;20407;-80
2023/04/09 12:52:10;;;;;;;120.43;86.37;;;;;;;;;;4994960;28;20058;-83
2023/04/09 12:54:35;;;;;;;123.43;86.40;;;;;;;;;;4990384;28;20065;-79
2023/04/09 12:57:01;;;;;;;93.88;76.78;;;;;;;;;;4995940;28;20022;-79
2023/04/09 12:59:26;;;;;;;98.80;78.82;;;;;;;;;;4993150;28;20547;-80
2023/04/09 13:01:51;;;;;;;140.55;104.72;;;;;;;;;;5010520;28;20429;-80
2023/04/09 13:04:17;;;;;;;82.25;71.43;;;;;;;;;;4995792;28;20038;-83
2023/04/09 13:06:42;;;;;;;108.13;88.63;;;;;;;;;;4996504;28;20033;-80
2023/04/09 13:09:07;;;;;;;83.70;70.78;;;;;;;;;;4996779;28;20124;-79
2023/04/09 13:11:33;;;;;;;79.35;67.75;;;;;;;;;;4990930;28;20149;-80
2023/04/09 13:13:58;;;;;;;82.60;69.20;;;;;;;;;;5011616;28;20041;-80
2023/04/09 13:16:23;;;;;;;75.50;64.30;;;;;;;;;;4994636;28;20026;-80
2023/04/09 13:18:48;;;;;;;77.50;63.67;;;;;;;;;;4994000;28;20056;-80
2023/04/09 13:21:17;;;;;;;72.75;62.58;;;;;;;;;;4991577;28;20029;-82
2023/04/09 13:23:43;;;;;;;73.97;63.00;;;;;;;;;;4996548;28;20022;-81
2023/04/09 13:26:08;;;;;;;69.05;58.67;;;;;;;;;;5004186;28;20034;-83
2023/04/09 13:28:33;;;;;;;78.05;65.97;;;;;;;;;;4986340;28;20059;-78
2023/04/09 13:30:59;;;;;;;81.45;67.68;;;;;;;;;;4991342;28;20030;-81
2023/04/09 13:33:24;;;;;;;76.78;66.00;;;;;;;;;;4989741;28;20037;-82
2023/04/09 13:35:50;;;;;;;72.95;62.83;;;;;;;;;;4996469;28;20461;-80
2023/04/09 13:38:15;;;;;;;74.45;64.00;;;;;;;;;;4996288;28;20569;-80
2023/04/09 13:40:41;;;;;;;84.40;72.10;;;;;;;;;;4990744;28;20026;-80
2023/04/09 13:43:06;;;;;;;77.03;65.53;;;;;;;;;;4989234;28;20038;-79
2023/04/09 13:45:31;;;;;;;81.72;68.05;;;;;;;;;;5003639;28;20044;-82
2023/04/09 13:47:57;;;;;;;79.60;65.95;;;;;;;;;;5003175;28;20165;-78
2023/04/09 13:50:22;;;;;;;76.22;63.90;;;;;;;;;;4987227;28;20034;-79
2023/04/09 13:52:47;;;;;;;79.13;65.60;;;;;;;;;;4990506;28;20030;-81
2023/04/09 13:55:13;;;;;;;67.85;59.13;;;;;;;;;;5000486;28;20782;-79
2023/04/09 13:57:38;;;;;;;119.00;102.05;;;;;;;;;;5014302;28;20029;-81
2023/04/09 14:00:04;;;;;;;71.50;63.47;;;;;;;;;;4990142;28;20041;-79
2023/04/09 14:02:30;;;;;;;77.50;65.25;;;;;;;;;;4989293;28;20023;-78
2023/04/09 14:04:55;;;;;;;66.85;57.97;;;;;;;;;;4995598;28;20029;-77
2023/04/09 14:07:21;;;;;;;189.75;111.03;;;;;;;;;;4993259;28;20075;-77
2023/04/09 14:09:47;;;;;;;97.30;82.35;;;;;;;;;;4998783;28;20368;-79